Bokchito, Oklahoma
Current Conditions -  °F | °C
As of 3:35 PM on Wednesday 17 Dec 2014 (Local Time) from KDUA Reporting Station
Overcast Overcast  
Wind Chill: 31°   Ceiling: 4800
Heat Index: 37°   Visibility: 10mi
Dew Point: 36°   Wind: 9mph
Humidity: 93%   Direction: 110°ESE
Pressure: 30.13"   Gusts: 18mph
Location:  34.02°N, 96.14°W
Report Text: KDUA 172135Z AUTO 11008G16KT 10SM SCT009 OVC048 03/02 A3013 RMK AO2
Loading
Personal Weather Stations






























Interactive Weather Map New forecast layout! Learn more

10-Day Weather Forecast

Advertisements
Track Severe Weather on mobile